sensor_id;sensor_type;location;lat;lon;timestamp;P1;durP1;ratioP1;P2;durP2;ratioP2
32946;SDS011;54465;51.230;22.504;2023-03-26T00:04:21;5.93;;;2.58;;
32946;SDS011;54465;51.230;22.504;2023-03-26T00:09:21;4.63;;;2.70;;
32946;SDS011;54465;51.230;22.504;2023-03-26T00:14:22;3.65;;;2.22;;
32946;SDS011;54465;51.230;22.504;2023-03-26T00:19:22;4.50;;;2.20;;
32946;SDS011;54465;51.230;22.504;2023-03-26T00:24:23;6.10;;;2.67;;
32946;SDS011;54465;51.230;22.504;2023-03-26T00:29:28;4.70;;;2.78;;
32946;SDS011;54465;51.230;22.504;2023-03-26T00:34:32;4.57;;;3.17;;
32946;SDS011;54465;51.230;22.504;2023-03-26T00:39:33;6.93;;;3.15;;
32946;SDS011;54465;51.230;22.504;2023-03-26T00:44:36;4.93;;;3.03;;
32946;SDS011;54465;51.230;22.504;2023-03-26T00:49:37;5.10;;;2.58;;
32946;SDS011;54465;51.230;22.504;2023-03-26T00:54:38;6.05;;;2.67;;
32946;SDS011;54465;51.230;22.504;2023-03-26T00:59:39;3.53;;;2.10;;
32946;SDS011;54465;51.230;22.504;2023-03-26T01:04:41;5.68;;;2.40;;
32946;SDS011;54465;51.230;22.504;2023-03-26T01:09:45;4.40;;;2.30;;
32946;SDS011;54465;51.230;22.504;2023-03-26T01:14:49;9.73;;;2.75;;
32946;SDS011;54465;51.230;22.504;2023-03-26T01:19:53;5.43;;;2.38;;
32946;SDS011;54465;51.230;22.504;2023-03-26T01:25:14;6.03;;;2.33;;
32946;SDS011;54465;51.230;22.504;2023-03-26T01:30:49;3.05;;;2.13;;
32946;SDS011;54465;51.230;22.504;2023-03-26T01:35:44;8.40;;;2.95;;
32946;SDS011;54465;51.230;22.504;2023-03-26T01:40:49;6.50;;;3.00;;
32946;SDS011;54465;51.230;22.504;2023-03-26T01:45:59;6.20;;;2.78;;
32946;SDS011;54465;51.230;22.504;2023-03-26T01:51:01;5.38;;;2.58;;
32946;SDS011;54465;51.230;22.504;2023-03-26T01:56:05;4.93;;;2.42;;
32946;SDS011;54465;51.230;22.504;2023-03-26T02:01:25;3.72;;;2.15;;
32946;SDS011;54465;51.230;22.504;2023-03-26T02:06:40;4.68;;;2.53;;
32946;SDS011;54465;51.230;22.504;2023-03-26T02:11:47;2.75;;;2.20;;
32946;SDS011;54465;51.230;22.504;2023-03-26T02:16:48;4.90;;;2.40;;
32946;SDS011;54465;51.230;22.504;2023-03-26T02:21:50;3.55;;;1.83;;
32946;SDS011;54465;51.230;22.504;2023-03-26T02:26:52;5.38;;;2.50;;
32946;SDS011;54465;51.230;22.504;2023-03-26T02:31:53;3.80;;;2.25;;
32946;SDS011;54465;51.230;22.504;2023-03-26T02:36:53;7.00;;;2.58;;
32946;SDS011;54465;51.230;22.504;2023-03-26T02:41:56;3.95;;;2.08;;
32946;SDS011;54465;51.230;22.504;2023-03-26T02:46:58;5.78;;;2.65;;
32946;SDS011;54465;51.230;22.504;2023-03-26T02:52:17;4.82;;;2.63;;
32946;SDS011;54465;51.230;22.504;2023-03-26T02:57:20;4.60;;;1.98;;
32946;SDS011;54465;51.230;22.504;2023-03-26T03:02:39;5.00;;;2.17;;
32946;SDS011;54465;51.230;22.504;2023-03-26T03:08:12;6.20;;;1.80;;
32946;SDS011;54465;51.230;22.504;2023-03-26T03:13:24;5.88;;;2.08;;
32946;SDS011;54465;51.230;22.504;2023-03-26T03:18:25;3.40;;;1.88;;
32946;SDS011;54465;51.230;22.504;2023-03-26T03:23:25;4.28;;;2.08;;
32946;SDS011;54465;51.230;22.504;2023-03-26T03:28:31;4.88;;;1.90;;
32946;SDS011;54465;51.230;22.504;2023-03-26T03:33:32;3.50;;;2.28;;
32946;SDS011;54465;51.230;22.504;2023-03-26T03:38:33;2.97;;;1.75;;
32946;SDS011;54465;51.230;22.504;2023-03-26T03:43:33;3.60;;;2.17;;
32946;SDS011;54465;51.230;22.504;2023-03-26T03:48:44;2.38;;;1.60;;
32946;SDS011;54465;51.230;22.504;2023-03-26T03:53:52;4.13;;;1.92;;
32946;SDS011;54465;51.230;22.504;2023-03-26T03:59:07;3.88;;;1.92;;
32946;SDS011;54465;51.230;22.504;2023-03-26T04:04:09;2.95;;;1.85;;
32946;SDS011;54465;51.230;22.504;2023-03-26T04:09:19;5.68;;;2.13;;
32946;SDS011;54465;51.230;22.504;2023-03-26T04:14:21;3.05;;;2.00;;
32946;SDS011;54465;51.230;22.504;2023-03-26T04:19:31;3.03;;;1.73;;
32946;SDS011;54465;51.230;22.504;2023-03-26T04:24:32;4.30;;;1.90;;
32946;SDS011;54465;51.230;22.504;2023-03-26T04:29:51;3.78;;;1.90;;
32946;SDS011;54465;51.230;22.504;2023-03-26T04:34:56;3.90;;;1.85;;
32946;SDS011;54465;51.230;22.504;2023-03-26T04:40:02;3.80;;;1.92;;
32946;SDS011;54465;51.230;22.504;2023-03-26T04:45:13;3.92;;;1.67;;
32946;SDS011;54465;51.230;22.504;2023-03-26T04:50:19;3.75;;;2.08;;
32946;SDS011;54465;51.230;22.504;2023-03-26T04:55:24;3.70;;;1.60;;
32946;SDS011;54465;51.230;22.504;2023-03-26T05:00:39;3.78;;;1.55;;
32946;SDS011;54465;51.230;22.504;2023-03-26T05:05:40;3.70;;;1.90;;
32946;SDS011;54465;51.230;22.504;2023-03-26T05:10:42;2.05;;;1.50;;
32946;SDS011;54465;51.230;22.504;2023-03-26T05:15:55;5.05;;;2.10;;
32946;SDS011;54465;51.230;22.504;2023-03-26T05:21:07;4.15;;;2.00;;
32946;SDS011;54465;51.230;22.504;2023-03-26T05:26:09;5.80;;;2.70;;
32946;SDS011;54465;51.230;22.504;2023-03-26T05:31:10;3.60;;;1.92;;
32946;SDS011;54465;51.230;22.504;2023-03-26T05:36:14;6.90;;;2.55;;
32946;SDS011;54465;51.230;22.504;2023-03-26T05:41:19;3.25;;;1.90;;
32946;SDS011;54465;51.230;22.504;2023-03-26T05:46:22;4.13;;;1.70;;
32946;SDS011;54465;51.230;22.504;2023-03-26T05:51:23;3.83;;;1.80;;
32946;SDS011;54465;51.230;22.504;2023-03-26T05:56:42;3.03;;;2.17;;
32946;SDS011;54465;51.230;22.504;2023-03-26T06:02:01;3.80;;;1.85;;
32946;SDS011;54465;51.230;22.504;2023-03-26T06:07:11;6.03;;;2.08;;
32946;SDS011;54465;51.230;22.504;2023-03-26T06:12:14;3.95;;;1.58;;
32946;SDS011;54465;51.230;22.504;2023-03-26T06:17:15;4.93;;;1.67;;
32946;SDS011;54465;51.230;22.504;2023-03-26T06:22:34;3.10;;;1.77;;
32946;SDS011;54465;51.230;22.504;2023-03-26T06:28:01;3.42;;;2.00;;
32946;SDS011;54465;51.230;22.504;2023-03-26T06:33:24;4.40;;;1.48;;
32946;SDS011;54465;51.230;22.504;2023-03-26T06:38:26;3.20;;;1.35;;
32946;SDS011;54465;51.230;22.504;2023-03-26T06:43:26;3.13;;;1.60;;
32946;SDS011;54465;51.230;22.504;2023-03-26T06:48:50;3.90;;;1.77;;
32946;SDS011;54465;51.230;22.504;2023-03-26T06:53:51;10.80;;;2.20;;
32946;SDS011;54465;51.230;22.504;2023-03-26T06:59:11;4.75;;;2.03;;
32946;SDS011;54465;51.230;22.504;2023-03-26T07:04:30;3.13;;;1.60;;
32946;SDS011;54465;51.230;22.504;2023-03-26T07:10:00;2.08;;;1.70;;
32946;SDS011;54465;51.230;22.504;2023-03-26T07:15:17;3.60;;;1.52;;
32946;SDS011;54465;51.230;22.504;2023-03-26T07:20:24;8.90;;;2.03;;
32946;SDS011;54465;51.230;22.504;2023-03-26T07:25:25;3.30;;;1.58;;
32946;SDS011;54465;51.230;22.504;2023-03-26T07:36:23;3.60;;;2.13;;
32946;SDS011;54465;51.230;22.504;2023-03-26T07:47:47;2.25;;;1.58;;
32946;SDS011;54465;51.230;22.504;2023-03-26T07:53:08;4.55;;;1.80;;
32946;SDS011;54465;51.230;22.504;2023-03-26T07:58:56;2.88;;;1.20;;
32946;SDS011;54465;51.230;22.504;2023-03-26T08:15:32;3.00;;;1.23;;
32946;SDS011;54465;51.230;22.504;2023-03-26T08:25:45;1.80;;;1.58;;
32946;SDS011;54465;51.230;22.504;2023-03-26T08:30:58;2.28;;;1.75;;
32946;SDS011;54465;51.230;22.504;2023-03-26T08:36:02;2.05;;;1.52;;
32946;SDS011;54465;51.230;22.504;2023-03-26T08:41:11;2.92;;;1.48;;
32946;SDS011;54465;51.230;22.504;2023-03-26T08:51:51;3.45;;;1.83;;
32946;SDS011;54465;51.230;22.504;2023-03-26T09:19:05;3.42;;;1.58;;
32946;SDS011;54465;51.230;22.504;2023-03-26T09:56:11;4.88;;;1.60;;
32946;SDS011;54465;51.230;22.504;2023-03-26T10:01:40;2.72;;;1.85;;
32946;SDS011;54465;51.230;22.504;2023-03-26T10:18:03;3.50;;;1.00;;
32946;SDS011;54465;51.230;22.504;2023-03-26T10:24:00;1.58;;;0.90;;
32946;SDS011;54465;51.230;22.504;2023-03-26T10:55:15;2.83;;;0.43;;
32946;SDS011;54465;51.230;22.504;2023-03-26T11:00:21;0.85;;;0.22;;
32946;SDS011;54465;51.230;22.504;2023-03-26T11:16:20;1.75;;;0.52;;
32946;SDS011;54465;51.230;22.504;2023-03-26T11:21:34;0.57;;;0.50;;
32946;SDS011;54465;51.230;22.504;2023-03-26T11:31:47;1.95;;;0.65;;
32946;SDS011;54465;51.230;22.504;2023-03-26T11:37:13;0.63;;;0.40;;
32946;SDS011;54465;51.230;22.504;2023-03-26T11:42:17;1.30;;;0.80;;
32946;SDS011;54465;51.230;22.504;2023-03-26T11:47:31;0.80;;;0.55;;
32946;SDS011;54465;51.230;22.504;2023-03-26T11:52:35;1.60;;;0.88;;
32946;SDS011;54465;51.230;22.504;2023-03-26T11:57:35;0.93;;;0.60;;
32946;SDS011;54465;51.230;22.504;2023-03-26T12:02:42;1.85;;;0.50;;
32946;SDS011;54465;51.230;22.504;2023-03-26T12:08:18;0.35;;;0.22;;
32946;SDS011;54465;51.230;22.504;2023-03-26T12:18:36;1.55;;;0.80;;
32946;SDS011;54465;51.230;22.504;2023-03-26T12:23:55;0.47;;;0.30;;
32946;SDS011;54465;51.230;22.504;2023-03-26T12:29:07;0.90;;;0.47;;
32946;SDS011;54465;51.230;22.504;2023-03-26T12:34:14;0.68;;;0.40;;
32946;SDS011;54465;51.230;22.504;2023-03-26T12:39:30;1.27;;;0.75;;
32946;SDS011;54465;51.230;22.504;2023-03-26T12:44:35;1.15;;;0.88;;
32946;SDS011;54465;51.230;22.504;2023-03-26T12:49:44;1.55;;;0.98;;
32946;SDS011;54465;51.230;22.504;2023-03-26T12:55:02;1.27;;;0.82;;
32946;SDS011;54465;51.230;22.504;2023-03-26T13:00:22;2.97;;;1.02;;
32946;SDS011;54465;51.230;22.504;2023-03-26T13:10:48;1.02;;;0.82;;
32946;SDS011;54465;51.230;22.504;2023-03-26T13:15:52;1.00;;;0.88;;
32946;SDS011;54465;51.230;22.504;2023-03-26T13:21:08;1.02;;;0.70;;
32946;SDS011;54465;51.230;22.504;2023-03-26T13:26:20;1.25;;;1.08;;
32946;SDS011;54465;51.230;22.504;2023-03-26T13:31:27;0.60;;;0.52;;
32946;SDS011;54465;51.230;22.504;2023-03-26T13:42:14;1.10;;;0.82;;
32946;SDS011;54465;51.230;22.504;2023-03-26T13:47:18;1.73;;;0.80;;
32946;SDS011;54465;51.230;22.504;2023-03-26T13:57:23;2.55;;;1.00;;
32946;SDS011;54465;51.230;22.504;2023-03-26T14:07:42;0.93;;;0.52;;
32946;SDS011;54465;51.230;22.504;2023-03-26T14:12:46;1.27;;;0.60;;
32946;SDS011;54465;51.230;22.504;2023-03-26T14:17:54;1.92;;;0.88;;
32946;SDS011;54465;51.230;22.504;2023-03-26T14:23:03;1.55;;;0.73;;
32946;SDS011;54465;51.230;22.504;2023-03-26T14:44:44;2.67;;;0.80;;
32946;SDS011;54465;51.230;22.504;2023-03-26T15:49:42;1.45;;;0.77;;
32946;SDS011;54465;51.230;22.504;2023-03-26T15:55:56;2.08;;;0.75;;
32946;SDS011;54465;51.230;22.504;2023-03-26T16:00:48;3.83;;;1.00;;
32946;SDS011;54465;51.230;22.504;2023-03-26T16:16:57;3.63;;;1.48;;
32946;SDS011;54465;51.230;22.504;2023-03-26T16:22:03;3.25;;;1.00;;
32946;SDS011;54465;51.230;22.504;2023-03-26T16:32:26;4.80;;;2.47;;
32946;SDS011;54465;51.230;22.504;2023-03-26T16:42:38;3.42;;;1.60;;
32946;SDS011;54465;51.230;22.504;2023-03-26T16:52:55;10.02;;;4.38;;
32946;SDS011;54465;51.230;22.504;2023-03-26T17:03:37;8.10;;;3.30;;
32946;SDS011;54465;51.230;22.504;2023-03-26T17:14:02;5.63;;;2.13;;
32946;SDS011;54465;51.230;22.504;2023-03-26T17:35:39;6.40;;;2.42;;
32946;SDS011;54465;51.230;22.504;2023-03-26T17:40:53;8.63;;;3.65;;
32946;SDS011;54465;51.230;22.504;2023-03-26T17:45:56;10.45;;;4.60;;
32946;SDS011;54465;51.230;22.504;2023-03-26T17:50:58;9.65;;;5.38;;
32946;SDS011;54465;51.230;22.504;2023-03-26T17:56:03;12.55;;;5.57;;
32946;SDS011;54465;51.230;22.504;2023-03-26T18:01:26;6.05;;;3.58;;
32946;SDS011;54465;51.230;22.504;2023-03-26T18:17:20;4.90;;;2.22;;
32946;SDS011;54465;51.230;22.504;2023-03-26T18:22:24;4.22;;;2.03;;
32946;SDS011;54465;51.230;22.504;2023-03-26T18:27:36;5.43;;;2.47;;
32946;SDS011;54465;51.230;22.504;2023-03-26T18:32:38;6.28;;;3.10;;
32946;SDS011;54465;51.230;22.504;2023-03-26T18:37:50;8.73;;;2.75;;
32946;SDS011;54465;51.230;22.504;2023-03-26T18:42:54;9.70;;;4.65;;
32946;SDS011;54465;51.230;22.504;2023-03-26T18:47:57;9.98;;;4.85;;
32946;SDS011;54465;51.230;22.504;2023-03-26T18:52:59;15.65;;;6.22;;
32946;SDS011;54465;51.230;22.504;2023-03-26T18:58:04;13.77;;;6.25;;
32946;SDS011;54465;51.230;22.504;2023-03-26T19:03:10;39.25;;;14.20;;
32946;SDS011;54465;51.230;22.504;2023-03-26T19:08:11;30.27;;;10.80;;
32946;SDS011;54465;51.230;22.504;2023-03-26T19:13:15;16.77;;;6.95;;
32946;SDS011;54465;51.230;22.504;2023-03-26T19:18:18;27.15;;;9.88;;
32946;SDS011;54465;51.230;22.504;2023-03-26T19:23:21;22.92;;;8.38;;
32946;SDS011;54465;51.230;22.504;2023-03-26T19:28:27;11.32;;;6.25;;
32946;SDS011;54465;51.230;22.504;2023-03-26T19:33:32;11.45;;;5.68;;
32946;SDS011;54465;51.230;22.504;2023-03-26T19:38:37;11.88;;;4.93;;
32946;SDS011;54465;51.230;22.504;2023-03-26T19:43:41;10.27;;;4.53;;
32946;SDS011;54465;51.230;22.504;2023-03-26T19:48:49;12.57;;;5.40;;
32946;SDS011;54465;51.230;22.504;2023-03-26T19:53:52;8.77;;;4.38;;
32946;SDS011;54465;51.230;22.504;2023-03-26T19:58:54;13.13;;;5.20;;
32946;SDS011;54465;51.230;22.504;2023-03-26T20:04:03;10.23;;;4.63;;
32946;SDS011;54465;51.230;22.504;2023-03-26T20:09:05;10.77;;;4.75;;
32946;SDS011;54465;51.230;22.504;2023-03-26T20:14:09;13.13;;;5.78;;
32946;SDS011;54465;51.230;22.504;2023-03-26T20:19:14;14.40;;;6.85;;
32946;SDS011;54465;51.230;22.504;2023-03-26T20:24:16;14.75;;;5.70;;
32946;SDS011;54465;51.230;22.504;2023-03-26T20:29:17;13.93;;;6.07;;
32946;SDS011;54465;51.230;22.504;2023-03-26T20:34:20;11.75;;;5.88;;
32946;SDS011;54465;51.230;22.504;2023-03-26T20:39:22;11.35;;;5.72;;
32946;SDS011;54465;51.230;22.504;2023-03-26T20:44:23;15.63;;;5.85;;
32946;SDS011;54465;51.230;22.504;2023-03-26T20:49:25;13.95;;;6.00;;
32946;SDS011;54465;51.230;22.504;2023-03-26T20:54:28;11.02;;;5.07;;
32946;SDS011;54465;51.230;22.504;2023-03-26T20:59:29;12.68;;;4.90;;
32946;SDS011;54465;51.230;22.504;2023-03-26T21:04:29;15.77;;;5.68;;
32946;SDS011;54465;51.230;22.504;2023-03-26T21:09:31;13.25;;;6.10;;
32946;SDS011;54465;51.230;22.504;2023-03-26T21:14:34;17.23;;;7.70;;
32946;SDS011;54465;51.230;22.504;2023-03-26T21:19:40;11.48;;;5.25;;
32946;SDS011;54465;51.230;22.504;2023-03-26T21:29:52;10.30;;;5.78;;
32946;SDS011;54465;51.230;22.504;2023-03-26T21:34:53;13.32;;;6.07;;
32946;SDS011;54465;51.230;22.504;2023-03-26T21:39:54;11.32;;;5.20;;
32946;SDS011;54465;51.230;22.504;2023-03-26T21:44:55;11.52;;;4.60;;
32946;SDS011;54465;51.230;22.504;2023-03-26T21:49:56;8.50;;;3.75;;
32946;SDS011;54465;51.230;22.504;2023-03-26T21:54:57;15.48;;;5.70;;
32946;SDS011;54465;51.230;22.504;2023-03-26T22:10:12;18.63;;;6.20;;
32946;SDS011;54465;51.230;22.504;2023-03-26T22:15:13;18.92;;;5.88;;
32946;SDS011;54465;51.230;22.504;2023-03-26T22:20:13;16.67;;;6.63;;
32946;SDS011;54465;51.230;22.504;2023-03-26T22:25:15;10.93;;;5.43;;
32946;SDS011;54465;51.230;22.504;2023-03-26T22:30:16;14.57;;;5.72;;
32946;SDS011;54465;51.230;22.504;2023-03-26T22:35:16;17.42;;;6.55;;
32946;SDS011;54465;51.230;22.504;2023-03-26T22:40:20;13.90;;;6.05;;
32946;SDS011;54465;51.230;22.504;2023-03-26T22:45:20;11.07;;;5.03;;
32946;SDS011;54465;51.230;22.504;2023-03-26T22:50:22;12.27;;;5.72;;
32946;SDS011;54465;51.230;22.504;2023-03-26T22:55:23;18.13;;;6.53;;
32946;SDS011;54465;51.230;22.504;2023-03-26T23:00:24;13.25;;;5.88;;
32946;SDS011;54465;51.230;22.504;2023-03-26T23:05:25;9.57;;;4.85;;
32946;SDS011;54465;51.230;22.504;2023-03-26T23:10:26;12.43;;;5.07;;
32946;SDS011;54465;51.230;22.504;2023-03-26T23:15:29;9.80;;;5.18;;
32946;SDS011;54465;51.230;22.504;2023-03-26T23:20:29;11.57;;;4.90;;
32946;SDS011;54465;51.230;22.504;2023-03-26T23:25:36;8.68;;;4.47;;
32946;SDS011;54465;51.230;22.504;2023-03-26T23:30:38;11.52;;;5.20;;
32946;SDS011;54465;51.230;22.504;2023-03-26T23:35:38;11.85;;;5.20;;
32946;SDS011;54465;51.230;22.504;2023-03-26T23:40:39;14.52;;;5.38;;
32946;SDS011;54465;51.230;22.504;2023-03-26T23:45:42;13.68;;;4.40;;
32946;SDS011;54465;51.230;22.504;2023-03-26T23:50:43;13.45;;;5.85;;
32946;SDS011;54465;51.230;22.504;2023-03-26T23:55:49;8.05;;;4.13;;
